createdAt,value
2022-12-18T00:00:16.401Z,67.82
2022-12-18T00:02:44.373Z,63.65
2022-12-18T00:05:13.021Z,67.85
2022-12-18T00:07:42.861Z,61.30
2022-12-18T00:10:11.438Z,61.08
2022-12-18T00:12:43.462Z,60.80
2022-12-18T00:15:13.362Z,57.88
2022-12-18T00:17:43.001Z,60.47
2022-12-18T00:20:12.451Z,63.53
2022-12-18T00:22:40.514Z,57.53
2022-12-18T00:25:09.584Z,56.95
2022-12-18T00:27:37.441Z,57.90
2022-12-18T00:30:06.745Z,61.40
2022-12-18T00:32:39.186Z,55.03
2022-12-18T00:35:08.777Z,51.72
2022-12-18T00:37:36.665Z,55.30
2022-12-18T00:40:05.660Z,52.20
2022-12-18T00:42:50.934Z,48.08
2022-12-18T00:47:48.826Z,46.33
2022-12-18T00:50:16.728Z,48.80
2022-12-18T00:52:45.355Z,43.92
2022-12-18T00:55:13.592Z,38.92
2022-12-18T00:57:42.083Z,39.40
2022-12-18T01:00:13.740Z,42.28
2022-12-18T01:02:42.875Z,41.67
2022-12-18T01:05:15.183Z,41.30
2022-12-18T01:07:43.514Z,41.38
2022-12-18T01:10:14.204Z,46.00
2022-12-18T01:12:42.784Z,37.17
2022-12-18T01:15:14.002Z,42.60
2022-12-18T01:17:42.691Z,37.03
2022-12-18T01:20:14.173Z,42.95
2022-12-18T01:22:41.979Z,40.03
2022-12-18T01:25:11.196Z,43.25
2022-12-18T01:27:39.591Z,37.50
2022-12-18T01:30:08.612Z,38.50
2022-12-18T01:32:39.449Z,36.72
2022-12-18T01:35:09.155Z,34.67
2022-12-18T01:37:38.469Z,40.50
2022-12-18T01:40:07.853Z,40.42
2022-12-18T01:42:35.657Z,39.13
2022-12-18T01:45:07.628Z,39.20
2022-12-18T01:47:41.091Z,39.03
2022-12-18T01:50:13.431Z,39.70
2022-12-18T01:52:44.878Z,40.45
2022-12-18T01:55:14.738Z,43.10
2022-12-18T01:57:43.534Z,47.58
2022-12-18T02:00:15.116Z,38.03
2022-12-18T02:02:43.932Z,46.00
2022-12-18T02:05:13.551Z,37.78
2022-12-18T02:07:56.824Z,44.15
2022-12-18T02:10:30.999Z,44.30
2022-12-18T02:13:09.235Z,32.70
2022-12-18T02:15:43.583Z,41.95
2022-12-18T02:18:15.429Z,47.65
2022-12-18T02:20:48.336Z,48.33
2022-12-18T02:23:33.129Z,47.42
2022-12-18T02:26:17.504Z,51.90
2022-12-18T02:28:49.744Z,52.10
2022-12-18T02:31:21.782Z,52.42
2022-12-18T02:33:52.804Z,47.53
2022-12-18T02:36:23.416Z,47.70
2022-12-18T02:38:54.686Z,42.90
2022-12-18T02:41:26.204Z,48.05
2022-12-18T02:43:59.269Z,44.38
2022-12-18T02:46:37.206Z,41.08
2022-12-18T02:49:14.771Z,42.25
2022-12-18T02:51:52.451Z,45.40
2022-12-18T02:54:29.893Z,41.63
2022-12-18T02:57:07.814Z,41.10
2022-12-18T02:59:43.535Z,40.97
2022-12-18T03:02:21.861Z,43.78
2022-12-18T03:04:55.663Z,45.58
2022-12-18T03:07:30.131Z,43.78
2022-12-18T03:10:00.152Z,44.60
2022-12-18T03:12:34.525Z,42.38
2022-12-18T03:15:07.504Z,38.17
2022-12-18T03:17:36.082Z,35.55
2022-12-18T03:20:12.343Z,30.50
2022-12-18T03:22:43.526Z,30.98
2022-12-18T03:25:15.696Z,29.60
2022-12-18T03:27:50.250Z,30.15
2022-12-18T03:30:19.896Z,29.30
2022-12-18T03:32:50.995Z,28.85
2022-12-18T03:35:24.417Z,27.15
2022-12-18T03:37:52.296Z,28.05
2022-12-18T03:40:23.897Z,29.15
2022-12-18T03:42:58.508Z,28.45
2022-12-18T03:45:29.473Z,31.55
2022-12-18T03:48:04.660Z,26.15
2022-12-18T03:50:41.223Z,30.42
2022-12-18T03:53:20.668Z,34.17
2022-12-18T03:55:49.627Z,35.00
2022-12-18T03:58:22.408Z,35.65
2022-12-18T04:00:52.366Z,37.25
2022-12-18T04:03:26.148Z,30.98
2022-12-18T04:05:57.962Z,31.23
2022-12-18T04:08:26.957Z,32.15
2022-12-18T04:10:55.227Z,32.40
2022-12-18T04:13:34.500Z,33.88
2022-12-18T04:16:02.490Z,26.90
2022-12-18T04:18:30.862Z,25.98
2022-12-18T04:20:58.758Z,29.52
2022-12-18T04:23:27.239Z,27.10
2022-12-18T04:25:55.126Z,31.30
2022-12-18T04:28:23.808Z,27.92
2022-12-18T04:30:53.275Z,29.17
2022-12-18T04:33:23.980Z,28.50
2022-12-18T04:35:51.976Z,32.33
2022-12-18T04:38:20.129Z,25.45
2022-12-18T04:40:47.978Z,29.42
2022-12-18T04:43:16.291Z,31.63
2022-12-18T04:45:44.065Z,28.80
2022-12-18T04:48:13.785Z,30.77
2022-12-18T04:50:41.878Z,33.35
2022-12-18T04:53:10.229Z,38.65
2022-12-18T04:55:38.312Z,32.35
2022-12-18T04:58:07.115Z,35.80
2022-12-18T05:00:35.108Z,33.83
2022-12-18T05:03:04.430Z,31.40
2022-12-18T05:05:33.788Z,34.35
2022-12-18T05:08:02.108Z,33.88
2022-12-18T05:10:37.576Z,29.50
2022-12-18T05:13:05.945Z,27.00
2022-12-18T05:15:35.308Z,30.83
2022-12-18T05:18:04.711Z,33.00
2022-12-18T05:20:34.314Z,28.60
2022-12-18T05:23:02.836Z,33.55
2022-12-18T05:25:30.630Z,26.80
2022-12-18T05:27:59.325Z,30.67
2022-12-18T05:30:28.675Z,30.73
2022-12-18T05:32:57.173Z,29.20
2022-12-18T05:35:24.932Z,28.27
2022-12-18T05:37:54.667Z,28.63
2022-12-18T05:40:22.571Z,24.88
2022-12-18T05:42:50.821Z,21.15
2022-12-18T05:45:18.770Z,22.65
2022-12-18T05:47:46.987Z,19.90
2022-12-18T05:50:14.933Z,19.65
2022-12-18T05:52:45.193Z,19.25
2022-12-18T05:55:14.416Z,18.25
2022-12-18T05:57:42.312Z,19.05
2022-12-18T06:00:12.274Z,16.60
2022-12-18T06:02:40.347Z,19.17
2022-12-18T06:05:09.434Z,16.23
2022-12-18T06:07:37.239Z,18.92
2022-12-18T06:10:05.926Z,16.38
2022-12-18T06:12:35.572Z,15.38
2022-12-18T06:15:04.025Z,17.15
2022-12-18T06:17:32.494Z,16.92
2022-12-18T06:20:00.685Z,15.70
2022-12-18T06:22:29.093Z,18.77
2022-12-18T06:24:56.835Z,18.48
2022-12-18T06:27:24.663Z,18.80
2022-12-18T06:29:54.373Z,19.20
2022-12-18T06:32:22.412Z,21.63
2022-12-18T06:34:50.432Z,19.60
2022-12-18T06:37:18.882Z,20.90
2022-12-18T06:39:46.843Z,16.58
2022-12-18T06:42:15.479Z,18.83
2022-12-18T06:44:43.251Z,17.02
2022-12-18T06:47:12.939Z,18.83
2022-12-18T06:49:40.666Z,20.55
2022-12-18T06:52:08.881Z,18.25
2022-12-18T06:54:36.751Z,15.02
2022-12-18T06:57:04.963Z,20.52
2022-12-18T06:59:32.856Z,17.73
2022-12-18T07:02:01.658Z,17.60
2022-12-18T07:04:31.914Z,19.30
2022-12-18T07:06:59.788Z,24.38
2022-12-18T07:09:30.122Z,16.17
2022-12-18T07:11:58.845Z,15.60
2022-12-18T07:14:27.850Z,15.57
2022-12-18T07:16:56.321Z,15.90
2022-12-18T07:19:24.745Z,18.73
2022-12-18T07:21:54.662Z,19.17
2022-12-18T07:24:22.987Z,18.25
2022-12-18T07:26:50.894Z,18.83
2022-12-18T07:29:19.256Z,17.13
2022-12-18T07:31:47.988Z,18.17
2022-12-18T07:34:16.651Z,14.90
2022-12-18T07:36:44.957Z,21.13
2022-12-18T07:39:14.330Z,16.23
2022-12-18T07:41:47.664Z,16.15
2022-12-18T07:44:16.159Z,17.50
2022-12-18T07:46:43.926Z,17.17
2022-12-18T07:49:12.015Z,15.40
2022-12-18T07:51:40.240Z,16.40
2022-12-18T07:54:07.915Z,16.15
2022-12-18T07:56:37.511Z,17.05
2022-12-18T07:59:05.661Z,15.73
2022-12-18T08:01:33.401Z,15.43
2022-12-18T08:04:01.636Z,15.13
2022-12-18T08:06:29.915Z,17.45
2022-12-18T08:08:58.129Z,13.38
2022-12-18T08:11:28.436Z,13.05
2022-12-18T08:13:58.684Z,16.92
2022-12-18T08:16:26.671Z,16.08
2022-12-18T08:18:55.759Z,14.15
2022-12-18T08:21:26.244Z,14.32
2022-12-18T08:23:55.931Z,15.82
2022-12-18T08:26:24.570Z,14.27
2022-12-18T08:28:52.878Z,18.60
2022-12-18T08:31:22.458Z,15.30
2022-12-18T08:33:53.748Z,15.75
2022-12-18T08:36:22.559Z,14.70
2022-12-18T08:38:51.666Z,15.40
2022-12-18T08:41:20.035Z,19.23
2022-12-18T08:44:06.673Z,16.33
2022-12-18T08:46:38.331Z,15.05
2022-12-18T08:49:07.865Z,20.70
2022-12-18T08:51:36.795Z,17.65
2022-12-18T08:54:06.463Z,18.17
2022-12-18T08:56:35.012Z,16.23
2022-12-18T08:59:03.166Z,19.05
2022-12-18T09:01:30.920Z,16.20
2022-12-18T09:04:00.759Z,17.15
2022-12-18T09:06:28.851Z,16.30
2022-12-18T09:08:56.499Z,20.48
2022-12-18T09:11:26.675Z,15.35
2022-12-18T09:13:56.049Z,19.38
2022-12-18T09:16:28.835Z,17.40
2022-12-18T09:19:01.660Z,18.40
2022-12-18T09:21:31.643Z,17.10
2022-12-18T09:24:01.368Z,15.82
2022-12-18T09:26:29.593Z,18.90
2022-12-18T09:28:57.307Z,20.33
2022-12-18T09:31:26.763Z,21.83
2022-12-18T09:33:54.436Z,21.73
2022-12-18T09:36:23.866Z,19.60
2022-12-18T09:38:51.535Z,24.10
2022-12-18T09:41:40.587Z,20.52
2022-12-18T09:44:17.016Z,20.70
2022-12-18T09:46:48.757Z,21.63
2022-12-18T09:49:20.431Z,19.42
2022-12-18T09:51:54.652Z,20.65
2022-12-18T09:54:25.930Z,21.17
2022-12-18T09:56:54.525Z,19.58
2022-12-18T09:59:28.602Z,19.95
2022-12-18T10:01:56.758Z,24.60
2022-12-18T10:04:25.425Z,23.67
2022-12-18T10:07:07.284Z,21.60
2022-12-18T10:09:44.131Z,20.83
2022-12-18T10:14:55.674Z,26.05
2022-12-18T10:17:31.089Z,21.67
2022-12-18T10:20:03.835Z,25.65
2022-12-18T10:22:46.236Z,21.33
2022-12-18T10:25:24.347Z,24.52
2022-12-18T10:27:57.066Z,28.95
2022-12-18T10:30:26.589Z,22.88
2022-12-18T10:32:55.096Z,27.23
2022-12-18T10:35:25.808Z,23.02
2022-12-18T10:38:22.365Z,27.55
2022-12-18T10:40:52.840Z,25.67
2022-12-18T10:43:24.043Z,26.20
2022-12-18T10:46:16.593Z,25.92
2022-12-18T10:48:54.580Z,28.42
2022-12-18T10:51:25.192Z,25.65
2022-12-18T10:54:04.345Z,28.23
2022-12-18T10:56:37.955Z,29.85
2022-12-18T10:59:07.607Z,25.95
2022-12-18T11:01:52.079Z,29.15
2022-12-18T11:04:22.954Z,37.03
2022-12-18T11:07:00.103Z,35.47
2022-12-18T11:09:30.475Z,32.72
2022-12-18T11:12:00.391Z,27.38
2022-12-18T11:14:31.134Z,28.63
2022-12-18T11:19:55.323Z,30.25
2022-12-18T11:22:27.279Z,28.20
2022-12-18T11:25:30.801Z,31.38
2022-12-18T11:27:51.545Z,27.27
2022-12-18T11:30:25.181Z,25.38
2022-12-18T11:32:57.318Z,28.25
2022-12-18T11:35:35.169Z,32.80
2022-12-18T11:38:12.801Z,27.23
2022-12-18T11:40:46.031Z,33.35
2022-12-18T11:43:19.207Z,42.28
2022-12-18T11:45:53.833Z,97.35
2022-12-18T11:48:27.076Z,197.63
2022-12-18T11:50:56.720Z,88.07
2022-12-18T11:53:26.980Z,68.03
2022-12-18T11:56:13.583Z,45.13
2022-12-18T11:58:49.735Z,32.20
2022-12-18T12:01:43.587Z,42.28
2022-12-18T12:04:38.879Z,56.53
2022-12-18T12:07:21.671Z,35.83
2022-12-18T12:09:55.383Z,27.75
2022-12-18T12:12:48.717Z,29.92
2022-12-18T12:15:28.648Z,26.60
2022-12-18T12:18:08.164Z,27.35
2022-12-18T12:20:49.047Z,24.35
2022-12-18T12:23:27.624Z,26.80
2022-12-18T12:26:02.247Z,28.67
2022-12-18T12:28:48.831Z,26.07
2022-12-18T12:31:27.523Z,29.67
2022-12-18T12:34:05.397Z,25.70
2022-12-18T12:36:44.011Z,31.83
2022-12-18T12:39:16.508Z,28.20
2022-12-18T12:42:01.396Z,27.95
2022-12-18T12:44:34.733Z,26.90
2022-12-18T12:47:15.526Z,52.88
2022-12-18T12:49:48.424Z,30.40
2022-12-18T12:52:27.853Z,30.23
2022-12-18T12:54:57.110Z,26.88
2022-12-18T12:57:33.112Z,27.33
2022-12-18T13:00:06.511Z,26.00
2022-12-18T13:02:42.140Z,30.67
2022-12-18T13:05:22.165Z,26.00
2022-12-18T13:07:53.779Z,30.65
2022-12-18T13:10:35.289Z,26.13
2022-12-18T13:13:04.999Z,29.58
2022-12-18T13:15:44.065Z,30.58
2022-12-18T13:18:23.631Z,29.98
2022-12-18T13:20:58.583Z,30.30
2022-12-18T13:23:33.542Z,30.13
2022-12-18T13:26:26.445Z,35.55
2022-12-18T13:29:00.627Z,37.90
2022-12-18T13:32:14.703Z,39.03
2022-12-18T13:34:44.982Z,32.65
2022-12-18T13:37:52.230Z,43.25
2022-12-18T13:40:55.986Z,38.20
2022-12-18T13:43:46.138Z,52.05
2022-12-18T13:46:31.585Z,36.03
2022-12-18T13:49:02.730Z,38.20
2022-12-18T13:51:34.344Z,37.78
2022-12-18T13:54:03.936Z,38.60
2022-12-18T13:56:33.718Z,41.95
2022-12-18T13:59:14.270Z,40.80
2022-12-18T14:01:49.696Z,42.53
2022-12-18T14:04:23.748Z,48.10
2022-12-18T14:06:54.439Z,51.30
2022-12-18T14:09:27.563Z,50.65
2022-12-18T14:12:18.431Z,79.30
2022-12-18T14:14:49.669Z,55.15
2022-12-18T14:17:22.359Z,56.85
2022-12-18T14:19:53.152Z,44.53
2022-12-18T14:22:23.303Z,53.85
2022-12-18T14:25:16.003Z,49.08
2022-12-18T14:27:45.935Z,55.85
2022-12-18T14:30:30.378Z,44.45
2022-12-18T14:33:07.960Z,38.78
2022-12-18T14:35:38.637Z,49.55
2022-12-18T14:38:26.057Z,51.10
2022-12-18T14:41:02.370Z,61.78
2022-12-18T14:43:31.347Z,52.65
2022-12-18T14:46:00.495Z,61.22
2022-12-18T14:48:39.412Z,49.55
2022-12-18T14:51:09.371Z,46.72
2022-12-18T14:53:40.851Z,44.67
2022-12-18T14:56:18.102Z,46.75
2022-12-18T14:58:50.983Z,77.82
2022-12-18T15:01:28.248Z,86.32
2022-12-18T15:03:59.533Z,108.47
2022-12-18T15:06:34.416Z,132.55
2022-12-18T15:09:03.900Z,89.60
2022-12-18T15:11:37.807Z,70.18
2022-12-18T15:14:24.583Z,40.53
2022-12-18T15:16:56.435Z,44.47
2022-12-18T15:19:36.406Z,53.83
2022-12-18T15:22:06.511Z,41.63
2022-12-18T15:24:34.915Z,38.10
2022-12-18T15:27:03.430Z,40.95
2022-12-18T15:29:31.501Z,39.70
2022-12-18T15:32:05.389Z,46.15
2022-12-18T15:34:36.094Z,44.97
2022-12-18T15:37:03.994Z,43.13
2022-12-18T15:39:32.349Z,47.38
2022-12-18T15:42:17.449Z,42.55
2022-12-18T15:44:46.385Z,37.75
2022-12-18T15:47:14.999Z,44.15
2022-12-18T15:49:44.735Z,44.80
2022-12-18T15:52:26.921Z,42.08
2022-12-18T15:55:12.725Z,41.88
2022-12-18T16:00:14.315Z,44.22
2022-12-18T16:02:42.189Z,41.42
2022-12-18T16:05:18.320Z,41.58
2022-12-18T16:07:46.617Z,43.60
2022-12-18T16:10:16.269Z,37.47
2022-12-18T16:12:45.094Z,41.40
2022-12-18T16:15:22.446Z,40.28
2022-12-18T16:17:52.721Z,40.33
2022-12-18T16:20:24.184Z,41.38
2022-12-18T16:22:52.073Z,41.05
2022-12-18T16:25:23.260Z,41.40
2022-12-18T16:27:51.667Z,42.90
2022-12-18T16:30:22.276Z,41.88
2022-12-18T16:32:50.756Z,40.15
2022-12-18T16:35:19.046Z,41.72
2022-12-18T16:37:48.850Z,42.25
2022-12-18T16:40:19.812Z,42.42
2022-12-18T16:42:48.350Z,42.40
2022-12-18T16:45:18.796Z,151.95
2022-12-18T16:47:47.299Z,123.07
2022-12-18T16:50:15.606Z,177.45
2022-12-18T16:52:44.027Z,140.57
2022-12-18T16:55:13.893Z,66.10
2022-12-18T16:57:41.783Z,83.18
2022-12-18T17:00:11.605Z,84.72
2022-12-18T17:02:41.434Z,78.97
2022-12-18T17:05:09.873Z,149.00
2022-12-18T17:07:37.728Z,148.38
2022-12-18T17:10:06.417Z,98.10
2022-12-18T17:12:37.395Z,57.72
2022-12-18T17:15:06.617Z,46.28
2022-12-18T17:17:36.534Z,39.05
2022-12-18T17:20:04.527Z,132.57
2022-12-18T17:22:33.252Z,140.25
2022-12-18T17:25:01.090Z,74.80
2022-12-18T17:27:29.446Z,59.95
2022-12-18T17:29:58.730Z,70.35
2022-12-18T17:32:29.870Z,79.28
2022-12-18T17:35:00.461Z,100.53
2022-12-18T17:37:31.139Z,59.90
2022-12-18T17:39:58.921Z,42.92
2022-12-18T17:42:26.832Z,39.80
2022-12-18T17:44:55.399Z,45.58
2022-12-18T17:47:24.796Z,45.72
2022-12-18T17:49:52.601Z,52.15
2022-12-18T17:52:21.499Z,50.20
2022-12-18T17:54:49.706Z,48.90
2022-12-18T17:57:17.647Z,53.15
2022-12-18T17:59:45.933Z,42.10
2022-12-18T18:02:14.125Z,49.00
2022-12-18T18:04:43.939Z,49.63
2022-12-18T18:07:11.866Z,52.15
2022-12-18T18:09:40.168Z,54.15
2022-12-18T18:12:25.180Z,51.42
2022-12-18T18:14:55.218Z,50.58
2022-12-18T18:17:23.561Z,51.80
2022-12-18T18:19:52.867Z,48.42
2022-12-18T18:22:21.228Z,46.97
2022-12-18T18:24:51.308Z,63.60
2022-12-18T18:27:19.116Z,50.22
2022-12-18T18:29:48.013Z,42.22
2022-12-18T18:32:15.911Z,46.97
2022-12-18T18:34:44.073Z,47.28
2022-12-18T18:37:13.582Z,48.05
2022-12-18T18:39:41.685Z,50.45
2022-12-18T18:42:10.365Z,53.10
2022-12-18T18:44:38.216Z,55.10
2022-12-18T18:47:07.406Z,48.15
2022-12-18T18:49:37.616Z,43.38
2022-12-18T18:52:07.718Z,48.40
2022-12-18T18:54:36.844Z,47.78
2022-12-18T18:57:20.416Z,47.53
2022-12-18T18:59:49.153Z,43.78
2022-12-18T19:02:18.571Z,42.97
2022-12-18T19:04:47.089Z,48.08
2022-12-18T19:07:20.340Z,55.75
2022-12-18T19:10:02.074Z,54.65
2022-12-18T19:12:51.092Z,44.50
2022-12-18T19:15:18.961Z,43.03
2022-12-18T19:17:47.496Z,45.72
2022-12-18T19:20:15.997Z,43.10
2022-12-18T19:22:44.775Z,48.63
2022-12-18T19:25:21.996Z,45.08
2022-12-18T19:27:49.901Z,48.13
2022-12-18T19:30:18.382Z,39.05
2022-12-18T19:32:46.356Z,43.90
2022-12-18T19:35:14.554Z,42.35
2022-12-18T19:37:42.488Z,62.88
2022-12-18T19:40:12.327Z,56.28
2022-12-18T19:42:42.095Z,50.03
2022-12-18T19:45:11.412Z,54.20
2022-12-18T19:47:39.223Z,54.97
2022-12-18T19:50:08.382Z,48.78
2022-12-18T19:52:36.839Z,49.75
2022-12-18T19:55:04.923Z,47.83
2022-12-18T19:57:33.509Z,47.60
2022-12-18T20:00:02.695Z,58.83
2022-12-18T20:02:31.458Z,54.30
2022-12-18T20:04:59.492Z,48.33
2022-12-18T20:07:27.640Z,61.22
2022-12-18T20:10:02.732Z,53.80
2022-12-18T20:12:36.665Z,56.88
2022-12-18T20:15:06.615Z,47.55
2022-12-18T20:17:34.707Z,46.47
2022-12-18T20:20:02.644Z,47.67
2022-12-18T20:22:30.882Z,44.05
2022-12-18T20:24:59.286Z,45.90
2022-12-18T20:27:27.110Z,40.45
2022-12-18T20:29:57.039Z,44.42
2022-12-18T20:32:28.844Z,46.40
2022-12-18T20:35:01.063Z,40.15
2022-12-18T20:37:31.837Z,43.60
2022-12-18T20:40:00.374Z,53.20
2022-12-18T20:42:28.809Z,53.10
2022-12-18T20:44:56.976Z,49.75
2022-12-18T20:47:24.800Z,50.47
2022-12-18T20:49:54.537Z,62.10
2022-12-18T20:52:22.433Z,56.47
2022-12-18T20:54:51.626Z,70.38
2022-12-18T20:57:19.591Z,51.30
2022-12-18T20:59:48.569Z,53.08
2022-12-18T21:02:17.068Z,43.75
2022-12-18T21:04:45.687Z,52.47
2022-12-18T21:07:15.058Z,50.22
2022-12-18T21:09:42.919Z,50.45
2022-12-18T21:12:35.149Z,46.30
2022-12-18T21:15:11.609Z,50.15
2022-12-18T21:17:44.495Z,56.05
2022-12-18T21:20:17.570Z,46.83
2022-12-18T21:22:49.744Z,59.60
2022-12-18T21:25:17.981Z,44.08
2022-12-18T21:27:49.516Z,55.35
2022-12-18T21:30:17.730Z,38.88
2022-12-18T21:32:45.610Z,42.92
2022-12-18T21:35:13.987Z,36.30
2022-12-18T21:37:43.284Z,37.90
2022-12-18T21:40:13.897Z,34.97
2022-12-18T21:42:58.972Z,37.67
2022-12-18T21:45:27.257Z,24.00
2022-12-18T21:47:55.063Z,38.30
2022-12-18T21:50:23.304Z,41.15
2022-12-18T21:52:51.663Z,37.92
2022-12-18T21:55:21.183Z,36.72
2022-12-18T21:57:49.832Z,34.10
2022-12-18T22:00:19.629Z,39.08
2022-12-18T22:02:52.485Z,30.55
2022-12-18T22:05:36.626Z,59.30
2022-12-18T22:08:04.565Z,50.30
2022-12-18T22:10:34.378Z,41.95
2022-12-18T22:13:02.409Z,55.92
2022-12-18T22:15:30.986Z,45.50
2022-12-18T22:18:00.202Z,38.20
2022-12-18T22:20:29.310Z,47.75
2022-12-18T22:22:58.077Z,42.08
2022-12-18T22:25:26.381Z,45.97
2022-12-18T22:28:13.157Z,50.60
2022-12-18T22:30:41.569Z,43.13
2022-12-18T22:33:09.423Z,44.20
2022-12-18T22:35:37.551Z,49.83
2022-12-18T22:38:05.472Z,58.15
2022-12-18T22:40:33.780Z,48.25
2022-12-18T22:43:03.082Z,43.17
2022-12-18T22:45:30.771Z,43.65
2022-12-18T22:48:01.056Z,51.60
2022-12-18T22:50:30.554Z,50.95
2022-12-18T22:52:58.858Z,44.50
2022-12-18T22:55:26.804Z,43.78
2022-12-18T22:57:57.329Z,55.50
2022-12-18T23:00:30.370Z,37.72
2022-12-18T23:03:00.857Z,39.20
2022-12-18T23:05:31.267Z,49.47
2022-12-18T23:07:59.550Z,40.13
2022-12-18T23:10:28.547Z,43.40
2022-12-18T23:12:56.868Z,38.95
2022-12-18T23:15:28.753Z,38.35
2022-12-18T23:17:59.157Z,37.97
2022-12-18T23:20:27.896Z,36.50
2022-12-18T23:22:55.709Z,39.45
2022-12-18T23:25:24.053Z,34.53
2022-12-18T23:27:51.811Z,38.90
2022-12-18T23:30:20.249Z,37.05
2022-12-18T23:32:49.460Z,37.22
2022-12-18T23:35:17.930Z,39.33
2022-12-18T23:38:01.036Z,34.60
2022-12-18T23:40:31.098Z,35.53
2022-12-18T23:43:00.431Z,31.23
2022-12-18T23:45:28.975Z,33.72
2022-12-18T23:47:59.908Z,36.15
2022-12-18T23:50:30.157Z,35.55
2022-12-18T23:53:05.186Z,33.15
2022-12-18T23:55:35.551Z,30.77
2022-12-18T23:58:03.213Z,36.25
